Portada
METAR-TAF:

METAR-TAF

Aeroports :

Yangon, Myanmar

latitud: 16-46N, longitud: 096-10E, altitud: 14 m

Observació

L'informe es va fer fa 31 minuts, a les 22:00 UTC
Vent 1 kt del Nord
Temperatura 19°C
Humitat 83%
Pressió 1012 hPa
Visibilitat: 7000 m

METAR: VYYY 112200Z 35001KT 7000 NSC 19/16 Q1012 NOSIG

Hora: 05:01 (22:31 UTC)

Pronòstic

L'informe es va fer fa 5 hores i 31 minuts, a les 17:00 UTC
Pronòstic vàlid del 11 a les 18 UTC al 12 a les 18 UTC
Vent 5 kt del Nord-Est
Visibilitat: 7000 m
Evolucionant progressivament
l' 12 a les 00 UTC al 12 a les 02 UTC
Vent 3 kt del Nord-Est
Visibilitat: 2000 m
boirina
Temporalment
l' 12 a les 02 UTC al 12 a les 05 UTC
Núvols disperses a una alçada de 2000 ft
Núvols disperses a una alçada de 9000 ft
Temporalment
l' 12 a les 06 UTC al 12 a les 12 UTC
Visibilitat: 6000 m
calitja

TAF: VYYY 111700Z 1118/1218 04005KT 7000 NSC BECMG 1200/1202 04003KT 2000 BR TEMPO 1202/1205 SCT020 SCT090 TEMPO 1206/1212 6000 HZ

Observacions i pronòstics meteorològics de més de 4000 aeroports (METAR i TAF).

Les estacions disponibles són els punts grocs i vermells al mapa.

Posi el ratolí al punt desitjat per veure el nom de l'estació.

Feu clic per veure les observacions i els pronòstics meteorològics.

Per canviar el mapa: feu clic els botons verds amb una creu de color negre per apropar; al botó verd amb un guió per allunyar la imatge; o en les fletxes verdes per a mapes adjacents.


METAR-TAF: